Time;durP1;ratioP1;P1;durP2;ratioP2;P2;SDS_P1;SDS_P2;PMS_P1;PMS_P2;Temp;Humidity;BMP_temperature;BMP_pressure;BME280_temperature;BME280_humidity;BME280_pressure;Samples;Min_cycle;Max_cycle;Signal;HPM_P1;HPM_P2
2021/07/07 00:00:16;;;;;;;15.25;2.58;;;;;;;16.36;75.34;100986.50;5071090;28;20086;-53
2021/07/07 00:02:44;;;;;;;12.30;2.53;;;;;;;16.36;75.21;100991.28;5069311;28;20080;-50
2021/07/07 00:05:13;;;;;;;14.27;2.80;;;;;;;16.34;75.43;100994.44;5071055;28;20127;-50
2021/07/07 00:07:41;;;;;;;10.82;2.60;;;;;;;16.36;75.42;100989.31;5070940;28;20091;-53
2021/07/07 00:10:13;;;;;;;12.95;2.28;;;;;;;16.36;75.66;100996.94;5070242;28;20454;-52
2021/07/07 00:12:41;;;;;;;15.05;3.17;;;;;;;16.35;75.25;100998.09;5070734;28;20040;-52
2021/07/07 00:15:12;;;;;;;13.93;3.22;;;;;;;16.37;75.69;101019.13;5070580;28;20390;-53
2021/07/07 00:17:41;;;;;;;15.25;2.63;;;;;;;16.38;75.90;101005.88;5070373;28;20052;-54
2021/07/07 00:20:12;;;;;;;13.48;2.53;;;;;;;16.36;75.67;101008.19;5070824;28;20049;-54
2021/07/07 00:22:40;;;;;;;13.48;2.70;;;;;;;16.36;75.76;101016.63;5070725;28;20565;-52
2021/07/07 00:25:09;;;;;;;14.07;2.70;;;;;;;16.38;76.35;101020.78;5070053;28;20451;-53
2021/07/07 00:27:38;;;;;;;16.38;2.90;;;;;;;16.36;76.61;101019.47;5069340;28;20048;-52
2021/07/07 00:30:07;;;;;;;13.05;3.08;;;;;;;16.35;76.56;101012.16;5070654;28;20072;-52
2021/07/07 00:32:35;;;;;;;13.82;2.47;;;;;;;16.33;76.85;101014.50;5069903;28;20056;-52
2021/07/07 00:35:05;;;;;;;10.43;2.13;;;;;;;16.34;76.89;101007.69;5070547;28;20144;-55
2021/07/07 00:37:32;;;;;;;13.13;2.65;;;;;;;16.35;76.99;101014.97;5070277;28;20151;-54
2021/07/07 00:40:00;;;;;;;12.63;2.05;;;;;;;16.31;76.61;101017.63;5070399;28;20504;-54
2021/07/07 00:42:28;;;;;;;10.57;2.40;;;;;;;16.33;76.55;101008.84;5070517;28;20047;-51
2021/07/07 00:44:55;;;;;;;11.35;1.95;;;;;;;16.37;76.74;101007.03;5070044;28;20135;-51
2021/07/07 00:47:24;;;;;;;10.48;2.38;;;;;;;16.37;77.41;101009.84;5070593;28;20044;-54
2021/07/07 00:49:51;;;;;;;11.52;2.08;;;;;;;16.37;77.63;101007.84;5070192;28;20547;-52
2021/07/07 00:52:21;;;;;;;11.85;2.17;;;;;;;16.38;77.91;101022.78;5069753;28;20094;-53
2021/07/07 00:54:49;;;;;;;14.07;2.05;;;;;;;16.40;77.78;101026.06;5070474;28;20139;-51
2021/07/07 00:57:18;;;;;;;14.45;2.42;;;;;;;16.39;77.92;101018.75;5070631;28;20080;-50
2021/07/07 00:59:46;;;;;;;17.85;2.72;;;;;;;16.39;78.34;101025.22;5069867;28;20064;-57
2021/07/07 01:02:18;;;;;;;12.63;2.63;;;;;;;16.38;78.72;101017.97;5067254;28;20060;-53
2021/07/07 01:04:46;;;;;;;15.60;2.70;;;;;;;16.39;79.26;101024.41;5070508;28;20493;-54
2021/07/07 01:07:14;;;;;;;13.52;2.83;;;;;;;16.40;79.54;101024.06;5069441;28;20520;-50
2021/07/07 01:09:43;;;;;;;18.83;2.92;;;;;;;16.41;80.34;101025.72;5070385;28;20532;-52
2021/07/07 01:12:11;;;;;;;15.45;2.80;;;;;;;16.43;80.48;101026.22;5070456;28;20072;-54
2021/07/07 01:14:39;;;;;;;12.35;2.35;;;;;;;16.43;80.79;101028.19;5072813;28;20585;-53
2021/07/07 01:17:08;;;;;;;14.77;2.60;;;;;;;16.39;81.34;101018.75;5073936;28;20048;-51
2021/07/07 01:19:35;;;;;;;10.60;2.33;;;;;;;16.39;80.89;101024.41;5073122;28;20132;-53
2021/07/07 01:22:05;;;;;;;12.68;2.58;;;;;;;16.37;80.80;101021.94;5073817;28;20106;-55
2021/07/07 01:24:32;;;;;;;7.80;1.95;;;;;;;16.40;80.84;101026.88;5073982;28;20075;-53
2021/07/07 01:27:00;;;;;;;13.80;2.25;;;;;;;16.40;80.84;101020.41;5073203;28;20080;-53
2021/07/07 01:29:28;;;;;;;16.30;2.83;;;;;;;16.41;81.05;101025.72;5073596;28;20461;-52
2021/07/07 01:31:56;;;;;;;11.93;2.22;;;;;;;16.43;81.19;101025.38;5073303;28;20084;-56
2021/07/07 01:34:24;;;;;;;7.75;2.08;;;;;;;16.42;80.69;101029.38;5072925;28;20130;-52
2021/07/07 01:36:51;;;;;;;14.35;2.22;;;;;;;16.39;80.55;101027.22;5073680;28;20453;-50
2021/07/07 01:39:21;;;;;;;15.98;2.85;;;;;;;16.42;80.51;101035.00;5073755;28;20056;-53
2021/07/07 01:41:49;;;;;;;11.52;2.30;;;;;;;16.41;80.30;101025.72;5069500;28;20489;-58
2021/07/07 01:44:16;;;;;;;9.88;2.20;;;;;;;16.41;80.11;101031.34;5073642;28;20051;-53
2021/07/07 01:46:44;;;;;;;8.40;2.00;;;;;;;16.36;80.10;101039.16;5072895;28;20512;-51
2021/07/07 01:49:12;;;;;;;8.48;2.30;;;;;;;16.35;80.17;101037.50;5072635;28;20047;-54
2021/07/07 01:51:40;;;;;;;11.35;2.53;;;;;;;16.35;80.01;101034.69;5073290;28;20056;-55
2021/07/07 01:54:08;;;;;;;11.63;1.98;;;;;;;16.33;79.90;101032.22;5073227;28;20405;-56
2021/07/07 01:56:37;;;;;;;10.07;1.95;;;;;;;16.34;79.62;101038.69;5072694;28;20145;-57
2021/07/07 01:59:05;;;;;;;10.85;1.90;;;;;;;16.36;79.51;101036.34;5072950;28;20059;-53
2021/07/07 02:01:33;;;;;;;12.85;2.58;;;;;;;16.35;79.21;101026.25;5067154;28;20131;-56
2021/07/07 02:04:00;;;;;;;10.00;2.22;;;;;;;16.35;79.18;101034.69;5072793;28;20119;-56
2021/07/07 02:06:29;;;;;;;9.35;2.15;;;;;;;16.35;78.97;101037.50;5072981;28;20439;-55
2021/07/07 02:08:58;;;;;;;6.85;1.75;;;;;;;16.37;79.25;101043.66;5072692;28;20124;-51
2021/07/07 02:11:26;;;;;;;10.10;1.90;;;;;;;16.37;79.25;101040.81;5072755;28;20048;-54
2021/07/07 02:13:55;;;;;;;10.48;2.60;;;;;;;16.33;79.32;101042.66;5072757;28;20135;-51
2021/07/07 02:16:23;;;;;;;15.07;2.78;;;;;;;16.31;79.21;101045.81;5072109;28;20401;-51
2021/07/07 02:18:51;;;;;;;10.90;2.25;;;;;;;16.28;79.14;101051.25;5072869;28;20047;-52
2021/07/07 02:21:19;;;;;;;12.60;2.55;;;;;;;16.25;78.78;101041.50;5072708;28;20049;-49
2021/07/07 02:23:47;;;;;;;9.60;2.10;;;;;;;16.23;79.33;101040.16;5071998;28;20581;-52
2021/07/07 02:26:14;;;;;;;9.90;2.22;;;;;;;16.22;79.27;101039.34;5071777;28;20060;-53
2021/07/07 02:28:42;;;;;;;9.02;2.00;;;;;;;16.20;79.41;101045.28;5072897;28;20044;-55
2021/07/07 02:31:11;;;;;;;10.15;1.92;;;;;;;16.20;79.60;101044.47;5070404;28;20079;-56
2021/07/07 02:33:39;;;;;;;5.50;1.83;;;;;;;16.17;79.90;101043.16;5072604;28;20052;-55
2021/07/07 02:36:08;;;;;;;8.30;1.80;;;;;;;16.14;79.87;101041.03;5072441;28;20127;-53
2021/07/07 02:38:36;;;;;;;7.78;2.00;;;;;;;16.06;79.80;101047.47;5071909;28;20080;-54
2021/07/07 02:41:04;;;;;;;10.15;2.10;;;;;;;15.95;79.94;101054.59;5072298;28;20056;-54
2021/07/07 02:43:32;;;;;;;9.82;2.22;;;;;;;15.85;80.56;101052.94;5072390;28;20098;-54
2021/07/07 02:46:00;;;;;;;9.02;1.90;;;;;;;15.86;80.74;101056.56;5071648;28;20482;-53
2021/07/07 02:48:29;;;;;;;10.57;1.95;;;;;;;15.89;80.87;101047.47;5072107;28;20095;-56
2021/07/07 02:50:57;;;;;;;12.60;2.47;;;;;;;15.92;80.94;101055.25;5072106;28;20409;-50
2021/07/07 02:53:25;;;;;;;9.45;2.50;;;;;;;15.94;80.91;101054.94;5071484;28;20044;-57
2021/07/07 02:55:53;;;;;;;9.25;1.83;;;;;;;15.95;81.29;101054.59;5072155;28;20143;-55
2021/07/07 02:58:20;;;;;;;8.57;1.80;;;;;;;15.97;81.09;101057.91;5071819;28;20504;-51
2021/07/07 03:00:49;;;;;;;9.50;2.10;;;;;;;15.97;81.43;101063.53;5071907;28;20063;-51
2021/07/07 03:03:20;;;;;;;9.32;2.45;;;;;;;15.94;81.21;101064.19;5071616;28;20497;-50
2021/07/07 03:05:52;;;;;;;7.95;2.20;;;;;;;15.82;81.03;101061.19;5071273;28;20076;-53
2021/07/07 03:08:21;;;;;;;6.88;2.10;;;;;;;15.66;81.01;101060.03;5071919;28;20101;-54
2021/07/07 03:10:49;;;;;;;10.00;2.15;;;;;;;15.47;81.17;101063.09;5071755;28;20052;-52
2021/07/07 03:13:20;;;;;;;9.13;2.60;;;;;;;15.30;81.27;101075.13;5070888;28;20044;-54
2021/07/07 03:15:48;;;;;;;8.32;2.00;;;;;;;15.15;81.59;101076.41;5071445;28;20067;-53
2021/07/07 03:18:16;;;;;;;11.00;2.65;;;;;;;15.03;81.86;101078.97;5071146;28;20052;-54
2021/07/07 03:20:46;;;;;;;9.27;2.38;;;;;;;14.94;81.93;101074.50;5070854;28;20094;-55
2021/07/07 03:23:18;;;;;;;8.50;2.17;;;;;;;14.85;82.19;101076.41;5071543;28;20072;-48
2021/07/07 03:25:46;;;;;;;;;;;;;;;14.68;81.84;101079.97;5067838;28;20076;-53
2021/07/07 03:28:14;;;;;;;6.68;2.10;;;;;;;14.63;82.82;101080.91;5070486;28;20392;-53
2021/07/07 03:30:42;;;;;;;8.50;2.60;;;;;;;14.66;82.83;101088.72;5070907;28;20044;-52
2021/07/07 03:33:11;;;;;;;8.52;2.42;;;;;;;14.63;82.72;101083.72;5071035;28;20546;-56
2021/07/07 03:35:39;;;;;;;9.18;2.10;;;;;;;14.60;82.86;101087.16;5071217;28;20037;-53
2021/07/07 03:38:07;;;;;;;7.13;2.10;;;;;;;14.56;82.99;101094.59;5071499;28;20048;-50
2021/07/07 03:40:38;;;;;;;7.30;2.20;;;;;;;14.52;82.90;101085.16;5070590;28;20045;-50
2021/07/07 03:43:06;;;;;;;7.15;2.20;;;;;;;14.48;83.09;101095.38;5071230;28;20048;-52
2021/07/07 03:45:35;;;;;;;6.57;2.60;;;;;;;14.45;83.19;101093.19;5069591;28;20469;-49
2021/07/07 03:48:07;;;;;;;9.27;2.75;;;;;;;14.41;83.32;101095.81;5070754;28;20083;-50
2021/07/07 03:50:37;;;;;;;8.20;2.25;;;;;;;14.37;83.49;101099.56;5071136;28;20056;-52
2021/07/07 03:53:06;;;;;;;7.32;1.88;;;;;;;14.34;83.50;101100.19;5071003;28;20056;-50
2021/07/07 03:55:34;;;;;;;6.57;2.65;;;;;;;14.29;83.63;101098.34;5070193;28;20552;-55
2021/07/07 03:58:04;;;;;;;4.68;2.10;;;;;;;14.24;83.97;101092.00;5070726;28;20159;-50
2021/07/07 04:00:32;;;;;;;7.10;1.95;;;;;;;14.22;83.81;101089.50;5071180;28;20131;-49
2021/07/07 04:03:00;;;;;;;6.55;1.70;;;;;;;14.21;84.14;101090.66;5070498;28;20045;-50
2021/07/07 04:05:28;;;;;;;8.30;2.25;;;;;;;14.21;84.15;101092.63;5071056;28;20052;-48
2021/07/07 04:07:56;;;;;;;10.55;2.83;;;;;;;14.19;83.97;101103.38;5070805;28;20041;-49
2021/07/07 04:10:24;;;;;;;7.93;2.60;;;;;;;14.20;84.31;101105.00;5070207;28;20493;-48
2021/07/07 04:12:52;;;;;;;7.85;2.25;;;;;;;14.20;84.39;101105.00;5070905;28;20047;-48
2021/07/07 04:15:22;;;;;;;8.93;2.20;;;;;;;14.21;84.27;101112.28;5071014;28;20048;-54
2021/07/07 04:17:50;;;;;;;8.10;2.53;;;;;;;14.21;84.33;101109.47;5070509;28;20446;-47
2021/07/07 04:20:20;;;;;;;6.18;2.10;;;;;;;14.22;84.60;101108.34;5070929;28;20044;-50
2021/07/07 04:22:49;;;;;;;8.65;2.30;;;;;;;14.22;84.48;101109.16;5070102;28;20070;-52
2021/07/07 04:25:17;;;;;;;8.27;2.50;;;;;;;14.25;84.45;101104.91;5070603;28;20056;-51
2021/07/07 04:27:45;;;;;;;7.00;2.20;;;;;;;14.32;84.54;101102.50;5070506;28;20093;-55
2021/07/07 04:30:17;;;;;;;7.10;2.50;;;;;;;14.36;84.43;101109.13;5070215;28;20056;-49
2021/07/07 04:32:47;;;;;;;7.55;2.60;;;;;;;14.41;84.50;101107.03;5070273;28;20519;-48
2021/07/07 04:35:17;;;;;;;9.15;2.80;;;;;;;14.44;84.39;101112.00;5070862;28;20048;-49
2021/07/07 04:37:45;;;;;;;8.10;2.47;;;;;;;14.47;84.31;101116.16;5069856;28;20068;-52
2021/07/07 04:40:16;;;;;;;6.38;2.20;;;;;;;14.50;84.27;101118.34;5070717;28;20058;-50
2021/07/07 04:42:44;;;;;;;9.63;2.78;;;;;;;14.52;84.22;101121.66;5068400;28;20044;-53
2021/07/07 04:45:13;;;;;;;7.95;2.38;;;;;;;14.56;84.13;101116.25;5070131;28;20044;-50
2021/07/07 04:47:41;;;;;;;9.05;2.95;;;;;;;14.61;84.23;101121.72;5070643;28;20131;-51
2021/07/07 04:50:13;;;;;;;5.90;2.30;;;;;;;14.65;84.10;101128.34;5074341;28;20472;-55
2021/07/07 04:52:41;;;;;;;6.57;2.60;;;;;;;14.67;84.04;101120.44;5073090;28;20147;-50
2021/07/07 04:55:11;;;;;;;5.97;2.50;;;;;;;14.70;84.06;101120.63;5074568;28;20090;-51
2021/07/07 04:57:42;;;;;;;10.43;3.13;;;;;;;14.74;83.91;101124.47;5073738;28;20087;-51
2021/07/07 05:00:13;;;;;;;5.50;2.28;;;;;;;14.77;83.96;101118.22;5071399;28;20044;-53
2021/07/07 05:02:42;;;;;;;9.98;2.65;;;;;;;14.83;83.89;101128.13;5074073;28;20044;-53
2021/07/07 05:05:13;;;;;;;9.07;2.47;;;;;;;14.91;83.98;101126.53;5073582;28;20501;-51
2021/07/07 05:07:41;;;;;;;7.88;2.78;;;;;;;14.99;83.79;101127.72;5074256;28;20110;-54
2021/07/07 05:10:10;;;;;;;8.77;2.45;;;;;;;15.09;83.73;101130.28;5074032;28;20087;-50
2021/07/07 05:12:39;;;;;;;9.82;2.60;;;;;;;15.15;83.53;101120.56;5073258;28;20048;-52
2021/07/07 05:15:08;;;;;;;8.15;2.30;;;;;;;15.23;83.27;101124.53;5073810;28;20135;-55
2021/07/07 05:17:36;;;;;;;7.63;2.35;;;;;;;15.30;83.05;101128.56;5073868;28;20044;-51
2021/07/07 05:20:06;;;;;;;7.32;3.13;;;;;;;15.33;82.82;101125.09;5073277;28;20052;-50
2021/07/07 05:22:35;;;;;;;8.60;2.70;;;;;;;15.39;82.79;101120.97;5073933;28;20068;-50
2021/07/07 05:25:03;;;;;;;9.52;2.47;;;;;;;15.43;82.71;101123.97;5073582;28;20127;-55
2021/07/07 05:27:34;;;;;;;7.05;2.40;;;;;;;15.47;82.79;101128.63;5073073;28;20045;-50
2021/07/07 05:30:02;;;;;;;6.53;2.30;;;;;;;15.52;82.74;101128.47;5073762;28;20560;-53
2021/07/07 05:32:30;;;;;;;7.03;2.50;;;;;;;15.57;82.81;101127.53;5073614;28;20057;-49
2021/07/07 05:34:58;;;;;;;5.82;2.75;;;;;;;15.63;82.64;101125.38;5072870;28;20072;-52
2021/07/07 05:37:26;;;;;;;5.93;2.50;;;;;;;15.70;82.61;101120.94;5062354;28;20151;-51
2021/07/07 05:39:55;;;;;;;6.25;2.47;;;;;;;15.79;82.43;101132.19;5073173;28;20147;-54
2021/07/07 05:42:23;;;;;;;7.40;2.30;;;;;;;15.88;82.60;101129.41;5073738;28;20048;-56
2021/07/07 05:44:54;;;;;;;6.13;2.30;;;;;;;15.97;82.33;101125.47;5070115;28;20059;-53
2021/07/07 05:47:24;;;;;;;4.60;2.15;;;;;;;16.08;82.10;101120.34;5069607;28;20049;-51
2021/07/07 05:49:55;;;;;;;6.95;2.30;;;;;;;16.24;81.99;101132.75;5073323;28;20493;-55
2021/07/07 05:52:27;;;;;;;6.15;2.15;;;;;;;16.44;81.61;101134.09;5072870;28;20489;-51
2021/07/07 05:54:56;;;;;;;5.63;2.10;;;;;;;16.65;81.25;101129.47;5072735;28;20117;-55
2021/07/07 05:57:37;;;;;;;7.47;2.00;;;;;;;16.80;80.83;101126.09;5073158;28;20471;-55
2021/07/07 06:00:07;;;;;;;9.27;1.85;;;;;;;16.96;80.69;101136.88;5073060;28;20052;-56
2021/07/07 06:02:35;;;;;;;8.13;2.40;;;;;;;17.11;80.72;101127.88;5071403;28;20037;-52
2021/07/07 06:05:05;;;;;;;7.00;2.55;;;;;;;17.29;80.48;101137.91;5072781;28;20106;-52
2021/07/07 06:07:33;;;;;;;5.43;1.88;;;;;;;17.46;80.31;101139.84;5073152;28;20474;-52
2021/07/07 06:10:03;;;;;;;9.18;2.00;;;;;;;17.49;79.87;101142.81;5072526;28;20072;-53
2021/07/07 06:12:30;;;;;;;8.77;1.88;;;;;;;17.52;79.94;101146.94;5071597;28;20120;-57
2021/07/07 06:14:58;;;;;;;7.05;1.70;;;;;;;17.47;79.93;101153.59;5072655;28;20044;-56
2021/07/07 06:17:26;;;;;;;6.60;1.98;;;;;;;17.43;79.84;101148.97;5072550;28;20663;-55
2021/07/07 06:19:54;;;;;;;7.82;2.25;;;;;;;17.38;79.94;101161.28;5072682;28;20045;-54
2021/07/07 06:22:22;;;;;;;8.57;2.22;;;;;;;17.35;80.34;101159.13;5071936;28;20639;-58
2021/07/07 06:24:49;;;;;;;9.00;2.05;;;;;;;17.37;80.15;101168.09;5071343;28;20493;-56
2021/07/07 06:27:19;;;;;;;7.72;2.65;;;;;;;17.39;79.82;101171.38;5072715;28;20444;-57
2021/07/07 06:29:47;;;;;;;8.85;2.10;;;;;;;17.42;79.49;101158.59;5071956;28;20118;-55
2021/07/07 06:32:16;;;;;;;9.00;2.45;;;;;;;17.42;79.34;101162.25;5072247;28;20469;-54
2021/07/07 06:34:44;;;;;;;8.38;2.30;;;;;;;17.42;79.53;101173.53;5072582;28;20472;-55
2021/07/07 06:37:12;;;;;;;9.50;2.92;;;;;;;17.42;79.54;101176.34;5071420;28;20126;-52
2021/07/07 06:39:40;;;;;;;6.72;2.30;;;;;;;17.42;79.37;101182.00;5069618;28;20135;-51
2021/07/07 06:42:08;;;;;;;9.10;2.88;;;;;;;17.54;79.55;101181.31;5072264;28;20090;-57
2021/07/07 06:44:38;;;;;;;7.38;2.25;;;;;;;17.69;78.75;101180.75;5068250;28;20447;-51
2021/07/07 06:47:06;;;;;;;11.18;2.20;;;;;;;17.84;78.14;101185.81;5072485;28;20379;-54
2021/07/07 06:49:34;;;;;;;7.57;2.10;;;;;;;18.04;78.20;101186.22;5072160;28;20098;-54
2021/07/07 06:52:02;;;;;;;8.57;2.40;;;;;;;18.28;77.29;101188.38;5071429;28;20109;-55
2021/07/07 06:54:30;;;;;;;6.10;2.33;;;;;;;18.49;76.56;101186.41;5072073;28;20596;-54
2021/07/07 06:56:58;;;;;;;9.52;2.30;;;;;;;18.61;76.22;101180.81;5071792;28;20135;-56
2021/07/07 06:59:26;;;;;;;8.70;2.42;;;;;;;18.74;75.69;101191.03;5070588;28;20075;-55
2021/07/07 07:01:55;;;;;;;9.32;2.28;;;;;;;18.81;75.60;101204.59;5071728;28;20048;-53
2021/07/07 07:04:23;;;;;;;9.70;2.53;;;;;;;18.78;75.64;101199.66;5071275;28;20051;-56
2021/07/07 07:06:51;;;;;;;7.20;2.00;;;;;;;18.77;75.96;101198.84;5071715;28;20528;-52
2021/07/07 07:09:19;;;;;;;6.70;2.08;;;;;;;18.74;76.21;101199.53;5070943;28;20130;-51
2021/07/07 07:11:46;;;;;;;9.93;2.75;;;;;;;18.69;76.11;101201.72;5070265;28;20570;-50
2021/07/07 07:14:14;;;;;;;10.57;2.40;;;;;;;18.55;76.41;101201.97;5071091;28;20469;-56
2021/07/07 07:16:43;;;;;;;9.02;2.30;;;;;;;18.43;77.27;101211.19;5070578;28;20527;-52
2021/07/07 07:19:14;;;;;;;6.10;2.33;;;;;;;18.32;77.90;101218.44;5070929;28;20048;-54
2021/07/07 07:21:42;;;;;;;9.30;2.33;;;;;;;18.23;78.40;101212.84;5071103;28;20924;-52
2021/07/07 07:24:10;;;;;;;11.50;2.58;;;;;;;18.19;78.36;101222.31;5070042;28;20054;-55
2021/07/07 07:26:38;;;;;;;9.40;2.83;;;;;;;18.15;78.68;101222.22;5071327;28;20495;-57
2021/07/07 07:29:07;;;;;;;10.60;2.75;;;;;;;18.17;78.80;101221.88;5071117;28;20127;-54
2021/07/07 07:31:35;;;;;;;7.88;2.28;;;;;;;18.23;78.66;101226.97;5071421;28;20045;-56
2021/07/07 07:34:03;;;;;;;8.63;2.47;;;;;;;18.29;78.02;101233.25;5071001;28;20051;-55
2021/07/07 07:36:32;;;;;;;5.45;2.10;;;;;;;18.33;77.95;101230.56;5071321;28;20135;-59
2021/07/07 07:39:03;;;;;;;9.80;2.65;;;;;;;18.33;78.29;101233.41;5071272;28;20532;-52
2021/07/07 07:41:32;;;;;;;7.68;2.50;;;;;;;18.34;78.16;101235.06;5070660;28;20044;-57
2021/07/07 07:44:00;;;;;;;8.80;2.20;;;;;;;18.33;78.22;101237.03;5070887;28;20044;-56
2021/07/07 07:46:30;;;;;;;9.65;2.55;;;;;;;18.33;78.45;101244.69;5070647;28;20052;-54
2021/07/07 07:49:00;;;;;;;8.20;2.10;;;;;;;18.30;78.24;101242.56;5068125;28;20040;-52
2021/07/07 07:51:29;;;;;;;6.22;2.05;;;;;;;18.19;78.92;101244.94;5067368;28;20056;-53
2021/07/07 07:53:59;;;;;;;10.82;2.45;;;;;;;18.07;79.57;101240.03;5071020;28;20505;-55
2021/07/07 07:56:27;;;;;;;10.15;2.50;;;;;;;17.98;79.54;101250.56;5069678;28;20041;-53
2021/07/07 07:58:55;;;;;;;8.52;2.40;;;;;;;17.92;79.96;101249.06;5071049;28;20052;-53
2021/07/07 08:01:24;;;;;;;9.27;2.20;;;;;;;17.87;80.55;101254.91;5070401;28;20127;-56
2021/07/07 08:03:52;;;;;;;8.00;2.42;;;;;;;17.85;80.73;101258.06;5070404;28;20052;-55
2021/07/07 08:06:20;;;;;;;9.30;2.47;;;;;;;17.81;80.73;101264.72;5067577;28;20132;-55
2021/07/07 08:08:48;;;;;;;11.00;2.60;;;;;;;17.88;80.97;101260.22;5063718;28;20075;-56
2021/07/07 08:11:17;;;;;;;11.88;3.75;;;;;;;18.09;80.93;101254.63;5068549;28;20098;-54
2021/07/07 08:13:45;;;;;;;9.73;2.20;;;;;;;18.33;80.52;101267.31;5068117;28;20075;-53
2021/07/07 08:16:13;;;;;;;9.43;2.35;;;;;;;18.48;80.20;101270.34;5070119;28;20509;-56
2021/07/07 08:18:41;;;;;;;13.90;2.85;;;;;;;18.62;79.59;101280.59;5069399;28;20044;-55
2021/07/07 08:21:09;;;;;;;6.28;2.67;;;;;;;18.76;78.79;101284.00;5071092;28;20500;-52
2021/07/07 08:23:37;;;;;;;9.10;2.58;;;;;;;18.88;77.77;101284.88;5072200;28;20072;-56
2021/07/07 08:26:05;;;;;;;8.02;2.55;;;;;;;18.98;76.96;101294.13;5074913;28;20028;-55
2021/07/07 08:28:34;;;;;;;7.47;2.35;;;;;;;18.96;76.53;101296.47;5074790;28;20040;-52
2021/07/07 08:31:02;;;;;;;7.95;2.30;;;;;;;18.91;76.66;101300.34;5074005;28;20058;-57
2021/07/07 08:33:30;;;;;;;7.53;2.35;;;;;;;18.88;76.99;101299.03;5075213;28;20051;-57
2021/07/07 08:35:58;;;;;;;10.98;3.15;;;;;;;18.89;76.95;101314.81;5074568;28;20155;-55
2021/07/07 08:38:26;;;;;;;6.75;2.30;;;;;;;18.90;76.58;101305.16;5074841;28;20048;-54
2021/07/07 08:40:53;;;;;;;9.98;2.97;;;;;;;19.03;76.07;101316.53;5074720;28;20123;-53
2021/07/07 08:43:23;;;;;;;6.78;2.10;;;;;;;19.15;75.47;101311.78;5074025;28;20456;-56
2021/07/07 08:45:56;;;;;;;9.45;2.25;;;;;;;19.11;74.56;101322.13;5074820;28;20117;-56
2021/07/07 08:48:24;;;;;;;6.38;1.80;;;;;;;19.19;74.48;101317.56;5071273;28;20182;-55
2021/07/07 08:50:57;;;;;;;5.22;1.70;;;;;;;19.37;73.40;101321.91;5073960;28;20033;-56
2021/07/07 08:53:25;;;;;;;6.15;1.70;;;;;;;19.56;71.84;101316.59;5073524;28;20040;-57
2021/07/07 08:55:54;;;;;;;4.32;1.58;;;;;;;19.81;70.79;101327.97;5074448;28;20136;-58
2021/07/07 08:58:22;;;;;;;7.47;2.00;;;;;;;19.91;69.03;101325.53;5074147;28;20881;-57
2021/07/07 09:00:51;;;;;;;4.97;1.58;;;;;;;20.08;67.74;101327.31;5074532;28;20051;-54
2021/07/07 09:03:20;;;;;;;5.25;1.48;;;;;;;20.10;67.60;101329.78;5074326;28;20082;-56
2021/07/07 09:05:56;;;;;;;5.10;1.65;;;;;;;20.13;67.33;101332.75;5073792;28;20087;-56
2021/07/07 09:08:27;;;;;;;6.85;1.77;;;;;;;20.17;66.29;101335.72;5070471;28;20079;-58
2021/07/07 09:10:57;;;;;;;5.65;1.60;;;;;;;20.18;66.68;101338.16;5068445;28;20131;-57
2021/07/07 09:13:26;;;;;;;6.32;1.80;;;;;;;20.35;66.81;101337.13;5073817;28;20044;-54
2021/07/07 09:15:53;;;;;;;6.85;2.00;;;;;;;20.55;65.79;101361.75;5073913;28;20052;-58
2021/07/07 09:18:34;;;;;;;5.85;1.67;;;;;;;20.46;63.28;101351.69;5073516;28;20072;-60
2021/07/07 09:21:03;;;;;;;4.43;2.08;;;;;;;20.40;64.92;101342.59;5072296;28;20497;-58
2021/07/07 09:23:31;;;;;;;6.07;1.70;;;;;;;20.44;65.18;101349.19;5073872;28;20152;-58
2021/07/07 09:26:02;;;;;;;5.70;1.55;;;;;;;20.51;63.70;101354.28;5073251;28;20135;-57
2021/07/07 09:28:32;;;;;;;5.05;1.50;;;;;;;20.50;64.16;101356.31;5073775;28;20041;-56
2021/07/07 09:31:02;;;;;;;4.22;1.40;;;;;;;20.59;63.78;101353.31;5073529;28;20400;-57
2021/07/07 09:33:39;;;;;;;5.25;1.55;;;;;;;20.75;62.57;101357.13;5072478;28;20073;-57
2021/07/07 09:36:21;;;;;;;5.75;1.85;;;;;;;20.81;61.31;101364.19;5072671;28;20139;-57
2021/07/07 09:38:51;;;;;;;6.50;2.10;;;;;;;20.87;62.84;101371.28;5073606;28;20056;-55
2021/07/07 09:41:20;;;;;;;6.45;1.45;;;;;;;20.97;61.00;101375.66;5073025;28;20139;-60
2021/07/07 09:43:48;;;;;;;5.63;1.20;;;;;;;20.90;60.50;101381.09;5073405;28;20094;-54
2021/07/07 09:46:17;;;;;;;5.35;1.33;;;;;;;20.94;61.43;101379.19;5072961;28;20044;-58
2021/07/07 09:48:47;;;;;;;5.28;1.52;;;;;;;21.11;61.04;101378.09;5073387;28;20068;-59
2021/07/07 09:51:15;;;;;;;3.75;1.30;;;;;;;21.24;59.65;101393.94;5072150;28;20072;-57
2021/07/07 09:53:43;;;;;;;5.95;1.20;;;;;;;21.07;59.24;101386.50;5072278;28;20588;-57
2021/07/07 09:56:11;;;;;;;5.13;1.30;;;;;;;20.94;58.79;101385.72;5073252;28;20113;-55
2021/07/07 09:58:39;;;;;;;6.65;1.65;;;;;;;21.00;60.09;101386.25;5073295;28;20048;-58
2021/07/07 10:01:07;;;;;;;4.55;1.17;;;;;;;21.01;59.59;101387.09;5072802;28;20097;-58
2021/07/07 10:03:36;;;;;;;5.07;1.27;;;;;;;21.14;59.71;101381.06;5073151;28;20072;-58
2021/07/07 10:06:10;;;;;;;5.15;1.30;;;;;;;21.25;59.65;101402.09;5072009;28;20053;-57
2021/07/07 10:08:43;;;;;;;4.47;1.30;;;;;;;21.36;60.21;101399.59;5068951;28;20064;-58
2021/07/07 10:11:11;;;;;;;;;;;;;;;21.21;59.42;101408.84;5073705;28;20041;-58
2021/07/07 10:13:39;;;;;;;5.65;1.58;;;;;;;21.14;61.43;101411.44;5072680;28;19931;-54
2021/07/07 10:16:07;;;;;;;5.00;1.88;;;;;;;21.15;61.60;101416.78;5072548;28;20508;-57
2021/07/07 10:18:36;;;;;;;5.50;1.70;;;;;;;21.25;61.07;101418.31;5072766;28;20045;-56
2021/07/07 10:21:06;;;;;;;7.00;1.70;;;;;;;21.37;59.88;101409.78;5073018;28;20048;-56
2021/07/07 10:23:38;;;;;;;5.95;1.52;;;;;;;21.53;60.09;101422.03;5072399;28;20079;-55
2021/07/07 10:26:08;;;;;;;4.30;1.40;;;;;;;21.57;59.93;101416.47;5072467;28;20048;-58
2021/07/07 10:28:36;;;;;;;5.40;1.92;;;;;;;21.42;60.20;101414.34;5072323;28;20079;-57
2021/07/07 10:31:04;;;;;;;7.22;1.60;;;;;;;21.44;60.64;101414.81;5072295;28;20055;-58
2021/07/07 10:33:36;;;;;;;5.45;1.83;;;;;;;21.59;60.68;101426.25;5072268;28;20059;-58
2021/07/07 10:36:18;;;;;;;5.00;1.80;;;;;;;21.63;59.89;101437.72;5071933;28;20044;-58
2021/07/07 10:38:51;;;;;;;4.38;1.70;;;;;;;21.54;60.56;101435.03;5071411;28;20127;-58
2021/07/07 10:41:46;;;;;;;7.38;2.15;;;;;;;21.44;60.72;101438.38;5072473;28;20102;-57
2021/07/07 10:44:47;;;;;;;4.88;1.75;;;;;;;21.45;60.24;101459.91;5067020;28;20139;-55
2021/07/07 10:47:37;;;;;;;4.82;1.33;;;;;;;21.35;57.86;101446.22;5068288;28;20056;-60
2021/07/07 10:50:07;;;;;;;3.92;1.10;;;;;;;21.26;59.82;101448.34;5068250;28;20072;-53
2021/07/07 10:52:43;;;;;;;4.13;1.30;;;;;;;21.30;59.77;101452.97;5071674;28;20140;-58
2021/07/07 10:55:15;;;;;;;6.60;1.70;;;;;;;21.32;60.71;101463.97;5072321;28;20396;-62
2021/07/07 10:57:45;;;;;;;5.38;1.55;;;;;;;21.27;60.90;101461.34;5068409;28;20122;-60
2021/07/07 11:00:32;;;;;;;5.70;1.50;;;;;;;21.23;60.16;101474.59;5072435;28;20068;-59
2021/07/07 11:03:39;;;;;;;6.35;1.77;;;;;;;21.21;59.80;101466.44;5071239;28;20049;-58
2021/07/07 11:06:36;;;;;;;3.53;1.52;;;;;;;21.01;58.89;101466.53;5061524;28;20048;-58
2021/07/07 11:09:12;;;;;;;4.32;1.50;;;;;;;21.23;60.49;101463.25;5059381;28;20083;-58
2021/07/07 11:11:41;;;;;;;8.07;2.00;;;;;;;21.39;60.30;101474.69;5071594;28;20078;-58
2021/07/07 11:14:19;;;;;;;6.82;1.80;;;;;;;21.35;60.62;101480.28;5071663;28;20098;-58
2021/07/07 11:16:58;;;;;;;5.45;1.90;;;;;;;21.22;61.12;101479.44;5071338;28;20457;-56
2021/07/07 11:19:44;;;;;;;7.43;1.85;;;;;;;21.17;61.53;101481.69;5070957;28;20099;-57
2021/07/07 11:22:14;;;;;;;6.75;1.88;;;;;;;21.18;62.77;101486.19;5070693;28;20066;-58
2021/07/07 11:24:49;;;;;;;5.03;2.00;;;;;;;21.10;61.23;101487.13;5070715;28;20044;-57
2021/07/07 11:27:17;;;;;;;3.92;1.48;;;;;;;21.16;60.51;101486.53;5071372;28;20564;-60
2021/07/07 11:29:46;;;;;;;3.53;1.35;;;;;;;21.19;60.08;101499.16;5070346;28;20076;-58
2021/07/07 11:32:36;;;;;;;6.82;1.92;;;;;;;21.11;61.50;101495.28;5069757;28;20052;-56
2021/07/07 11:35:08;;;;;;;5.75;1.50;;;;;;;21.11;61.14;101517.16;5071435;28;20127;-58